Terminal Aerodrome Forecast
Issued by NWS Boston, MA

Home | Current Version | Previous Version | Text Only | Print | Product List | Glossary On
Versions: 1 2 3 4 5 6 7 8 9 10 11 12 13 14 15 16 17 18 19 20 21 22 23 24 25 26 27 28 29 30 31 32 33 34 35 36 37 38 39 40 41 42 43 44 45 46 47 48
000
FTUS41 KBOX 230539
TAFBOS
TAF
KBOS 230539Z 2306/2412 00000KT P6SM FEW008 BKN012
     FM230700 32005KT P6SM SCT012 BKN040
     FM231000 32010KT P6SM SKC
     FM231600 06006KT P6SM SKC
     FM231700 11006KT P6SM SKC
     FM232100 15009KT P6SM SKC
     FM240000 19009KT P6SM SKC=

USA.gov is the U.S. government's official web portal to all federal, state and local government web resources and services.